createdAt,value
2019-03-26T05:01:02.978Z,4.40
2019-03-26T05:02:03.152Z,4.70
2019-03-26T05:03:03.322Z,4.50
2019-03-26T05:04:03.490Z,4.10
2019-03-26T05:05:03.662Z,4.10
2019-03-26T05:06:03.830Z,4.20
2019-03-26T05:07:04.006Z,4.00
2019-03-26T05:08:04.170Z,4.30
2019-03-26T05:09:04.342Z,4.20
2019-03-26T05:10:04.512Z,4.20
2019-03-26T05:11:04.684Z,4.50
2019-03-26T05:12:04.874Z,3.80
2019-03-26T05:13:05.026Z,4.40
2019-03-26T05:14:05.198Z,4.30
2019-03-26T05:15:05.368Z,3.90
2019-03-26T05:16:05.537Z,4.20
2019-03-26T05:17:05.708Z,3.70
2019-03-26T05:18:05.877Z,4.40
2019-03-26T05:19:06.046Z,3.80
2019-03-26T05:20:06.222Z,4.50
2019-03-26T05:21:06.386Z,4.80
2019-03-26T05:22:06.557Z,4.50
2019-03-26T05:23:06.727Z,4.70
2019-03-26T05:24:06.962Z,4.30
2019-03-26T05:25:07.069Z,4.40
2019-03-26T05:26:07.238Z,4.20
2019-03-26T05:27:07.409Z,4.00
2019-03-26T05:28:07.582Z,4.40
2019-03-26T05:29:07.749Z,3.90
2019-03-26T05:30:07.920Z,3.80
2019-03-26T05:31:08.091Z,3.70
2019-03-26T05:32:08.259Z,3.80
2019-03-26T05:33:08.430Z,3.90
2019-03-26T05:34:08.597Z,3.40
2019-03-26T05:35:08.769Z,4.00
2019-03-26T05:36:08.939Z,3.50
2019-03-26T05:37:09.113Z,4.00
2019-03-26T05:38:09.279Z,3.80
2019-03-26T05:39:09.450Z,3.60
2019-03-26T05:40:09.621Z,4.00
2019-03-26T05:41:10.588Z,4.00
2019-03-26T05:42:09.959Z,3.60
2019-03-26T05:43:10.131Z,4.30
2019-03-26T05:44:10.305Z,3.50
2019-03-26T05:45:10.472Z,4.00
2019-03-26T05:46:10.642Z,3.80
2019-03-26T05:47:10.811Z,3.70
2019-03-26T05:48:10.981Z,4.10
2019-03-26T05:49:11.151Z,3.70
2019-03-26T05:50:11.321Z,3.70
2019-03-26T05:51:11.490Z,3.50
2019-03-26T05:52:11.664Z,4.00
2019-03-26T05:53:11.829Z,3.80
2019-03-26T05:54:12.003Z,4.00
2019-03-26T05:55:12.167Z,4.00
2019-03-26T05:56:12.340Z,3.80
2019-03-26T05:57:12.542Z,4.50
2019-03-26T05:58:12.680Z,3.40
2019-03-26T05:59:12.849Z,3.00
2019-03-26T06:00:13.025Z,3.60
2019-03-26T06:01:13.187Z,3.70
2019-03-26T06:02:16.473Z,3.90
2019-03-26T06:03:13.528Z,3.40
2019-03-26T06:04:13.779Z,3.40
2019-03-26T06:05:13.868Z,3.70
2019-03-26T06:06:14.037Z,3.30
2019-03-26T06:07:14.220Z,3.50
2019-03-26T06:08:14.378Z,3.30
2019-03-26T06:09:14.549Z,3.40
2019-03-26T06:10:14.723Z,3.30
2019-03-26T06:11:14.895Z,3.30
2019-03-26T06:12:15.064Z,3.30
2019-03-26T06:13:15.233Z,3.30
2019-03-26T06:14:15.398Z,2.90
2019-03-26T06:15:15.569Z,2.90
2019-03-26T06:16:15.739Z,3.20
2019-03-26T06:17:15.911Z,3.50
2019-03-26T06:18:16.081Z,3.60
2019-03-26T06:19:16.247Z,3.30
2019-03-26T06:20:16.418Z,2.80
2019-03-26T06:21:16.589Z,2.80
2019-03-26T06:22:16.757Z,3.30
2019-03-26T06:23:16.931Z,2.90
2019-03-26T06:24:17.102Z,3.40
2019-03-26T06:25:17.274Z,3.10
2019-03-26T06:26:17.443Z,2.60
2019-03-26T06:27:17.612Z,3.40
2019-03-26T06:28:17.785Z,3.10
2019-03-26T06:29:17.956Z,3.10
2019-03-26T06:30:18.125Z,3.10
2019-03-26T06:31:18.292Z,3.00
2019-03-26T06:32:18.462Z,2.90
2019-03-26T06:33:18.634Z,2.80
2019-03-26T06:34:18.806Z,3.20
2019-03-26T06:35:18.976Z,2.60
2019-03-26T06:36:19.146Z,2.60
2019-03-26T06:37:19.315Z,2.60
2019-03-26T06:38:19.489Z,3.10
2019-03-26T06:39:19.658Z,3.10
2019-03-26T06:40:19.833Z,2.90
2019-03-26T06:41:20.000Z,3.20
2019-03-26T06:42:20.172Z,3.20
2019-03-26T06:43:20.340Z,3.00
2019-03-26T06:44:20.512Z,2.80
2019-03-26T06:45:20.682Z,2.60
2019-03-26T06:46:20.853Z,3.00
2019-03-26T06:47:21.025Z,2.40
2019-03-26T06:48:21.196Z,2.60
2019-03-26T06:49:21.363Z,2.90
2019-03-26T06:50:21.540Z,2.80
2019-03-26T06:51:21.704Z,2.80
2019-03-26T06:52:21.874Z,3.10
2019-03-26T06:53:22.042Z,2.60
2019-03-26T06:54:22.210Z,3.20
2019-03-26T06:55:22.382Z,3.00
2019-03-26T06:56:22.551Z,3.00
2019-03-26T06:57:34.956Z,3.20
2019-03-26T06:58:22.894Z,2.60
2019-03-26T06:59:23.061Z,2.80
2019-03-26T07:00:23.230Z,3.20
2019-03-26T07:01:23.399Z,2.90
2019-03-26T07:02:23.571Z,3.40
2019-03-26T07:03:23.741Z,3.00
2019-03-26T07:04:23.910Z,3.00
2019-03-26T07:05:24.077Z,2.70
2019-03-26T07:06:24.248Z,3.10
2019-03-26T07:07:31.542Z,2.80
2019-03-26T07:08:24.584Z,3.20
2019-03-26T07:09:24.751Z,3.10
2019-03-26T07:10:24.920Z,3.80
2019-03-26T07:11:25.090Z,3.20
2019-03-26T07:12:25.264Z,2.90
2019-03-26T07:13:25.430Z,3.00
2019-03-26T07:14:25.600Z,3.40
2019-03-26T07:15:25.771Z,3.20
2019-03-26T07:16:25.941Z,3.50
2019-03-26T07:17:27.213Z,3.50
2019-03-26T07:18:26.279Z,3.20
2019-03-26T07:19:26.448Z,3.90
2019-03-26T07:20:26.618Z,3.50
2019-03-26T07:21:26.788Z,3.60
2019-03-26T07:22:26.956Z,3.30
2019-03-26T07:23:27.132Z,3.70
2019-03-26T07:24:27.293Z,3.50
2019-03-26T07:25:27.468Z,3.30
2019-03-26T07:26:27.635Z,3.70
2019-03-26T07:27:27.803Z,3.30
2019-03-26T07:28:27.973Z,4.10
2019-03-26T07:29:28.143Z,3.30
2019-03-26T07:30:28.309Z,3.10
2019-03-26T07:31:28.482Z,3.60
2019-03-26T07:32:28.652Z,3.30
2019-03-26T07:33:28.819Z,3.20
2019-03-26T07:34:28.991Z,3.00
2019-03-26T07:35:29.158Z,3.20
2019-03-26T07:36:29.330Z,3.00
2019-03-26T07:37:29.498Z,3.10
2019-03-26T07:38:29.668Z,3.00
2019-03-26T07:39:29.836Z,3.10
2019-03-26T07:40:30.008Z,2.80
2019-03-26T07:41:30.171Z,3.30
2019-03-26T07:42:30.340Z,2.80
2019-03-26T07:43:30.508Z,3.10
2019-03-26T07:44:30.679Z,3.30
2019-03-26T07:45:30.857Z,2.80
2019-03-26T07:46:31.021Z,2.90
2019-03-26T07:47:31.187Z,3.20
2019-03-26T07:48:31.356Z,3.70
2019-03-26T07:49:31.526Z,2.60
2019-03-26T07:50:31.696Z,2.80
2019-03-26T07:51:31.864Z,2.90
2019-03-26T07:52:32.032Z,2.60
2019-03-26T07:53:32.206Z,2.30
2019-03-26T07:54:32.742Z,2.30
2019-03-26T07:55:32.541Z,3.10
2019-03-26T07:56:32.711Z,2.80
2019-03-26T07:57:32.878Z,2.90
2019-03-26T07:58:33.437Z,2.80
2019-03-26T07:59:33.217Z,2.50
2019-03-26T08:00:33.382Z,2.70
2019-03-26T08:01:33.552Z,2.50
2019-03-26T08:02:33.721Z,2.70
2019-03-26T08:03:33.892Z,2.70
2019-03-26T08:04:34.060Z,2.50
2019-03-26T08:05:34.238Z,2.50
2019-03-26T08:06:34.399Z,2.20
2019-03-26T08:07:34.570Z,2.20
2019-03-26T08:08:34.739Z,2.20
2019-03-26T08:09:35.061Z,2.30
2019-03-26T08:10:35.082Z,2.30
2019-03-26T08:11:35.248Z,2.10
2019-03-26T08:12:35.419Z,2.40
2019-03-26T08:13:35.616Z,2.30
2019-03-26T08:14:35.766Z,2.30
2019-03-26T08:15:35.936Z,2.20
2019-03-26T08:16:36.104Z,2.40
2019-03-26T08:17:36.284Z,2.20
2019-03-26T08:18:36.441Z,2.20
2019-03-26T08:19:36.609Z,2.40
2019-03-26T08:20:36.784Z,2.50
2019-03-26T08:21:36.951Z,2.30
2019-03-26T08:22:37.121Z,2.00
2019-03-26T08:23:38.412Z,2.40
2019-03-26T08:24:37.459Z,2.40
2019-03-26T08:25:37.627Z,2.70
2019-03-26T08:26:37.795Z,2.20
2019-03-26T08:27:37.963Z,2.40
2019-03-26T08:28:38.134Z,2.20
2019-03-26T08:29:38.303Z,1.90
2019-03-26T08:30:38.474Z,2.20
2019-03-26T08:31:38.644Z,2.20
2019-03-26T08:32:38.816Z,2.20
2019-03-26T08:33:38.981Z,1.90
2019-03-26T08:34:39.152Z,2.10
2019-03-26T08:35:39.323Z,2.10
2019-03-26T08:36:39.490Z,1.90
2019-03-26T08:37:39.659Z,2.40
2019-03-26T08:38:39.828Z,2.20
2019-03-26T08:39:39.998Z,2.30
2019-03-26T08:40:40.167Z,2.10
2019-03-26T08:41:40.342Z,2.50
2019-03-26T08:42:40.507Z,2.10
2019-03-26T08:43:41.093Z,2.20
2019-03-26T08:44:40.848Z,2.40
2019-03-26T08:45:41.014Z,2.10
2019-03-26T08:46:41.183Z,2.30
2019-03-26T08:47:41.352Z,1.80
2019-03-26T08:48:41.520Z,2.60
2019-03-26T08:49:41.690Z,2.20
2019-03-26T08:50:41.864Z,2.50
2019-03-26T08:51:42.031Z,2.10
2019-03-26T08:52:42.199Z,2.70
2019-03-26T08:53:42.367Z,2.80
2019-03-26T08:54:42.537Z,2.10
2019-03-26T08:55:42.705Z,2.20
2019-03-26T08:56:42.878Z,2.10
2019-03-26T08:57:43.045Z,2.50
2019-03-26T08:58:43.214Z,3.10
2019-03-26T08:59:43.388Z,2.50
2019-03-26T09:00:43.556Z,2.00
2019-03-26T09:01:43.726Z,2.20
2019-03-26T09:02:43.898Z,2.30
2019-03-26T09:03:44.065Z,2.70
2019-03-26T09:04:44.235Z,2.50
2019-03-26T09:05:44.403Z,2.20
2019-03-26T09:06:44.573Z,2.30
2019-03-26T09:07:44.742Z,2.50
2019-03-26T09:08:44.911Z,4.50
2019-03-26T09:09:45.082Z,4.20
2019-03-26T09:10:51.611Z,3.00
2019-03-26T09:11:45.419Z,2.40
2019-03-26T09:12:45.589Z,2.20
2019-03-26T09:13:45.754Z,2.40
2019-03-26T09:14:45.928Z,3.00
2019-03-26T09:15:46.100Z,3.30
2019-03-26T09:16:46.269Z,3.10
2019-03-26T09:17:46.441Z,3.30
2019-03-26T09:18:46.609Z,3.20
2019-03-26T09:19:46.779Z,3.20
2019-03-26T09:20:47.022Z,2.90
2019-03-26T09:21:47.119Z,2.60
2019-03-26T09:22:47.291Z,2.70
2019-03-26T09:23:47.460Z,2.60
2019-03-26T09:24:47.636Z,2.10
2019-03-26T09:25:47.800Z,2.50
2019-03-26T09:26:47.969Z,2.70
2019-03-26T09:27:48.138Z,2.80
2019-03-26T09:28:48.320Z,2.00
2019-03-26T09:29:48.478Z,2.40
2019-03-26T09:30:48.647Z,2.20
2019-03-26T09:31:48.817Z,3.10
2019-03-26T09:32:48.986Z,2.60
2019-03-26T09:33:49.155Z,2.40
2019-03-26T09:34:49.326Z,2.30
2019-03-26T09:35:49.499Z,2.90
2019-03-26T09:36:49.669Z,2.60
2019-03-26T09:37:49.838Z,2.70
2019-03-26T09:38:50.012Z,2.90
2019-03-26T09:39:50.177Z,2.60
2019-03-26T09:40:50.351Z,3.00
2019-03-26T09:41:50.517Z,3.20
2019-03-26T09:42:50.684Z,3.00
2019-03-26T09:43:50.853Z,2.40
2019-03-26T09:44:51.024Z,2.60
2019-03-26T09:45:51.195Z,2.70
2019-03-26T09:46:51.364Z,2.60
2019-03-26T09:47:51.533Z,2.80
2019-03-26T09:48:51.704Z,2.20
2019-03-26T09:49:51.876Z,2.40
2019-03-26T09:50:52.045Z,2.60
2019-03-26T09:51:52.214Z,2.30
2019-03-26T09:52:52.387Z,2.40
2019-03-26T09:53:52.556Z,2.30
2019-03-26T09:54:52.725Z,2.40
2019-03-26T09:55:52.894Z,2.40
2019-03-26T09:56:53.068Z,2.30
2019-03-26T09:57:53.238Z,2.40
2019-03-26T09:58:53.413Z,2.20
2019-03-26T09:59:53.579Z,2.20
2019-03-26T10:00:53.750Z,2.00
2019-03-26T10:01:53.926Z,2.30
2019-03-26T10:02:54.094Z,2.10
2019-03-26T10:03:54.272Z,2.50
2019-03-26T10:04:54.436Z,2.00
2019-03-26T10:05:54.607Z,1.90
2019-03-26T10:06:54.779Z,2.10
2019-03-26T10:07:54.952Z,2.20
2019-03-26T10:08:55.128Z,2.00
2019-03-26T10:09:55.298Z,2.10
2019-03-26T10:10:55.472Z,1.90
2019-03-26T10:11:55.645Z,2.10
2019-03-26T10:12:55.818Z,1.90
2019-03-26T10:13:55.993Z,2.00
2019-03-26T10:14:56.164Z,1.90
2019-03-26T10:15:56.341Z,2.20
2019-03-26T10:16:56.513Z,2.00
2019-03-26T10:17:56.683Z,1.80
2019-03-26T10:18:56.861Z,2.00
2019-03-26T10:19:57.036Z,2.10
2019-03-26T10:20:57.210Z,2.30
2019-03-26T10:21:57.384Z,2.40
2019-03-26T10:22:57.558Z,1.80
2019-03-26T10:23:57.735Z,2.20
2019-03-26T10:24:57.910Z,2.20
2019-03-26T10:25:58.085Z,2.20
2019-03-26T10:26:58.261Z,1.80
2019-03-26T10:27:58.436Z,2.40
2019-03-26T10:28:58.613Z,2.20
2019-03-26T10:29:58.789Z,2.30
2019-03-26T10:30:58.965Z,2.20
2019-03-26T10:31:59.142Z,2.20
2019-03-26T10:32:59.316Z,2.30
2019-03-26T10:33:59.493Z,2.30
2019-03-26T10:34:59.668Z,2.30
2019-03-26T10:35:59.848Z,2.40
2019-03-26T10:37:00.019Z,2.10
2019-03-26T10:38:00.195Z,1.90
2019-03-26T10:39:05.528Z,1.90
2019-03-26T10:40:00.549Z,2.20
2019-03-26T10:41:00.724Z,1.90
2019-03-26T10:42:00.899Z,2.30
2019-03-26T10:43:01.075Z,2.20
2019-03-26T10:44:01.256Z,2.10
2019-03-26T10:45:01.430Z,2.00
2019-03-26T10:46:01.605Z,1.90
2019-03-26T10:47:01.777Z,2.00
2019-03-26T10:48:01.955Z,1.90
2019-03-26T10:49:02.136Z,2.30
2019-03-26T10:50:02.317Z,1.70
2019-03-26T10:51:02.477Z,1.80
2019-03-26T10:52:02.654Z,1.70
2019-03-26T10:53:02.839Z,1.90
2019-03-26T10:54:03.002Z,1.90
2019-03-26T10:55:03.175Z,1.60
2019-03-26T10:56:03.349Z,2.00
2019-03-26T10:57:03.525Z,1.70
2019-03-26T10:58:03.703Z,1.90
2019-03-26T10:59:04.277Z,1.60
2019-03-26T11:00:04.046Z,1.80
2019-03-26T11:01:04.222Z,1.90
2019-03-26T11:02:04.401Z,1.80
2019-03-26T11:03:04.568Z,2.00
2019-03-26T11:04:07.565Z,1.90
2019-03-26T11:05:04.915Z,2.10
2019-03-26T11:06:05.089Z,1.60
2019-03-26T11:07:05.269Z,1.70
2019-03-26T11:08:05.434Z,1.70
2019-03-26T11:09:18.857Z,2.00
2019-03-26T11:10:05.783Z,1.90
2019-03-26T11:11:05.955Z,1.90
2019-03-26T11:12:06.130Z,2.00
2019-03-26T11:13:06.333Z,2.00
2019-03-26T11:14:06.475Z,2.00
2019-03-26T11:15:06.649Z,2.20
2019-03-26T11:16:06.819Z,1.80
2019-03-26T11:17:06.992Z,1.70
2019-03-26T11:18:07.164Z,1.90
2019-03-26T11:19:07.340Z,2.20
2019-03-26T11:20:07.511Z,2.10
2019-03-26T11:21:07.681Z,1.80
2019-03-26T11:22:07.854Z,2.40
2019-03-26T11:23:08.025Z,2.00
2019-03-26T11:24:08.200Z,2.10
2019-03-26T11:25:08.371Z,2.20
2019-03-26T11:26:08.543Z,2.00
2019-03-26T11:27:08.719Z,2.10
2019-03-26T11:28:08.894Z,2.30
2019-03-26T11:29:09.067Z,2.40
2019-03-26T11:30:09.244Z,2.20
2019-03-26T11:31:09.416Z,2.20
2019-03-26T11:32:09.589Z,2.10
2019-03-26T11:33:09.763Z,10.40
2019-03-26T11:34:09.936Z,3.20
2019-03-26T11:35:10.114Z,2.30
2019-03-26T11:36:10.283Z,1.90
2019-03-26T11:37:10.455Z,1.90
2019-03-26T11:38:10.639Z,1.80
2019-03-26T11:39:10.808Z,1.70
2019-03-26T11:40:10.984Z,1.80
2019-03-26T11:41:11.162Z,1.60
2019-03-26T11:42:11.335Z,2.10
2019-03-26T11:43:11.511Z,2.30
2019-03-26T11:44:11.682Z,2.10
2019-03-26T11:45:11.859Z,2.20
2019-03-26T11:46:12.033Z,2.10
2019-03-26T11:47:12.210Z,2.00
2019-03-26T11:48:12.382Z,2.60
2019-03-26T11:49:12.557Z,1.90
2019-03-26T11:50:12.728Z,1.80
2019-03-26T11:51:12.904Z,1.70
2019-03-26T11:52:13.077Z,1.70
2019-03-26T11:53:13.251Z,1.90
2019-03-26T11:54:13.424Z,1.90
2019-03-26T11:55:13.596Z,2.00
2019-03-26T11:56:13.768Z,2.20
2019-03-26T11:57:13.941Z,2.20
2019-03-26T11:58:14.117Z,1.80
2019-03-26T11:59:14.287Z,2.00
2019-03-26T12:00:14.459Z,1.80
2019-03-26T12:01:14.631Z,2.00
2019-03-26T12:02:14.918Z,1.80
2019-03-26T12:03:14.977Z,2.00
2019-03-26T12:04:15.149Z,2.20
2019-03-26T12:05:15.322Z,1.90
2019-03-26T12:06:15.494Z,2.30
2019-03-26T12:07:15.668Z,2.40
2019-03-26T12:08:15.839Z,2.00
2019-03-26T12:09:16.012Z,2.30
2019-03-26T12:10:16.185Z,2.00
2019-03-26T12:11:16.357Z,2.10
2019-03-26T12:12:16.531Z,2.10
2019-03-26T12:13:16.706Z,2.20
2019-03-26T12:14:16.876Z,1.90
2019-03-26T12:15:17.047Z,2.00
2019-03-26T12:16:17.229Z,2.20
2019-03-26T12:17:17.400Z,2.10
2019-03-26T12:18:17.574Z,1.70
2019-03-26T12:19:17.747Z,2.00
2019-03-26T12:20:17.924Z,2.00
2019-03-26T12:21:18.094Z,2.20
2019-03-26T12:22:18.267Z,2.10
2019-03-26T12:23:18.443Z,2.20
2019-03-26T12:24:18.613Z,2.80
2019-03-26T12:25:18.790Z,2.10
2019-03-26T12:26:18.959Z,2.50
2019-03-26T12:27:19.134Z,2.20
2019-03-26T12:28:19.310Z,2.10
2019-03-26T12:29:19.480Z,1.90
2019-03-26T12:30:19.651Z,1.70
2019-03-26T12:31:19.823Z,1.70
2019-03-26T12:32:19.996Z,1.70
2019-03-26T12:33:20.169Z,1.90
2019-03-26T12:34:20.343Z,1.90
2019-03-26T12:35:20.514Z,1.90
2019-03-26T12:36:20.686Z,1.80
2019-03-26T12:37:20.861Z,2.10
2019-03-26T12:38:21.030Z,1.80
2019-03-26T12:39:21.205Z,1.70
2019-03-26T12:40:21.375Z,2.10
2019-03-26T12:41:21.547Z,1.90
2019-03-26T12:42:21.718Z,2.10
2019-03-26T12:43:21.889Z,2.10
2019-03-26T12:44:22.063Z,2.10
2019-03-26T12:45:22.236Z,2.90
2019-03-26T12:46:22.405Z,2.00
2019-03-26T12:47:22.578Z,2.30
2019-03-26T12:48:22.749Z,2.20
2019-03-26T12:49:22.921Z,1.90
2019-03-26T12:50:23.091Z,2.00
2019-03-26T12:51:23.266Z,2.00
2019-03-26T12:52:23.437Z,2.10
2019-03-26T12:53:23.608Z,2.30
2019-03-26T12:54:23.848Z,2.00
2019-03-26T12:55:23.967Z,2.20
2019-03-26T12:56:24.139Z,1.90
2019-03-26T12:57:24.379Z,2.30
2019-03-26T12:58:31.568Z,2.30
2019-03-26T12:59:26.657Z,3.00
2019-03-26T13:00:24.855Z,3.00
2019-03-26T13:01:25.021Z,2.40
2019-03-26T13:02:25.194Z,2.10
2019-03-26T13:03:25.365Z,2.20
2019-03-26T13:04:25.534Z,2.10
2019-03-26T13:05:25.704Z,2.20
2019-03-26T13:06:25.876Z,1.90
2019-03-26T13:07:26.046Z,2.30
2019-03-26T13:08:26.217Z,2.50
2019-03-26T13:09:26.388Z,2.00
2019-03-26T13:10:26.559Z,1.80
2019-03-26T13:11:26.729Z,2.10
2019-03-26T13:12:26.901Z,2.00
2019-03-26T13:13:27.072Z,2.00
2019-03-26T13:14:27.241Z,1.90
2019-03-26T13:15:27.413Z,2.00
2019-03-26T13:16:27.585Z,2.30
2019-03-26T13:17:27.756Z,2.20
2019-03-26T13:18:27.932Z,1.80
2019-03-26T13:19:28.097Z,1.90
2019-03-26T13:20:28.268Z,2.70
2019-03-26T13:21:28.445Z,2.40
2019-03-26T13:22:28.616Z,2.00
2019-03-26T13:23:28.786Z,1.90
2019-03-26T13:24:28.957Z,2.00
2019-03-26T13:25:29.129Z,2.00
2019-03-26T13:26:29.299Z,2.20
2019-03-26T13:27:29.471Z,2.20
2019-03-26T13:28:29.643Z,2.10
2019-03-26T13:29:29.813Z,2.20
2019-03-26T13:30:29.988Z,1.90
2019-03-26T13:31:30.156Z,1.80
2019-03-26T13:32:30.325Z,2.10
2019-03-26T13:33:30.497Z,2.20
2019-03-26T13:34:30.667Z,2.20
2019-03-26T13:35:30.837Z,1.80
2019-03-26T13:36:31.008Z,1.90
2019-03-26T13:37:31.181Z,2.00
2019-03-26T13:38:31.354Z,2.00
2019-03-26T13:39:31.527Z,2.10
2019-03-26T13:40:31.697Z,2.20
2019-03-26T13:41:31.869Z,1.90
2019-03-26T13:42:32.037Z,2.40
2019-03-26T13:43:32.208Z,2.10
2019-03-26T13:44:32.380Z,2.20
2019-03-26T13:45:32.928Z,2.10
2019-03-26T13:46:32.723Z,2.20
2019-03-26T13:47:32.892Z,2.40
2019-03-26T13:48:33.065Z,2.20
2019-03-26T13:49:33.236Z,2.40
2019-03-26T13:50:33.407Z,1.90
2019-03-26T13:51:33.579Z,2.20
2019-03-26T13:52:33.749Z,1.90
2019-03-26T13:53:33.921Z,1.90
2019-03-26T13:54:34.092Z,2.00
2019-03-26T13:55:34.265Z,2.10
2019-03-26T13:56:34.433Z,2.10
2019-03-26T13:57:34.602Z,1.90
2019-03-26T13:58:34.774Z,2.50
2019-03-26T13:59:34.946Z,2.00
2019-03-26T14:00:35.117Z,2.10
2019-03-26T14:01:35.291Z,1.80
2019-03-26T14:02:35.460Z,1.90
2019-03-26T14:03:35.636Z,2.00
2019-03-26T14:04:35.802Z,2.00
2019-03-26T14:05:35.973Z,2.30
2019-03-26T14:06:36.143Z,2.00
2019-03-26T14:07:36.316Z,2.10
2019-03-26T14:08:36.491Z,2.20
2019-03-26T14:09:36.659Z,2.00
2019-03-26T14:10:41.097Z,2.30
2019-03-26T14:11:37.002Z,2.10
2019-03-26T14:12:37.175Z,2.50
2019-03-26T14:13:37.345Z,1.90
2019-03-26T14:14:37.517Z,2.00
2019-03-26T14:15:37.685Z,2.00
2019-03-26T14:16:37.858Z,2.20
2019-03-26T14:17:38.029Z,2.20
2019-03-26T14:18:38.197Z,2.10
2019-03-26T14:19:38.370Z,1.90
2019-03-26T14:20:38.543Z,2.10
2019-03-26T14:21:38.715Z,2.50
2019-03-26T14:22:38.885Z,2.00
2019-03-26T14:23:39.057Z,2.40
2019-03-26T14:24:39.228Z,3.00
2019-03-26T14:25:39.402Z,2.40
2019-03-26T14:26:39.570Z,2.40
2019-03-26T14:27:39.743Z,1.90
2019-03-26T14:28:39.914Z,2.10
2019-03-26T14:29:40.088Z,2.00
2019-03-26T14:30:40.254Z,2.10
2019-03-26T14:31:40.425Z,1.90
2019-03-26T14:32:40.594Z,1.70
2019-03-26T14:33:40.762Z,2.00
2019-03-26T14:34:40.932Z,2.10
2019-03-26T14:35:41.105Z,1.80
2019-03-26T14:36:41.285Z,2.10
2019-03-26T14:37:51.101Z,2.20
2019-03-26T14:38:41.618Z,2.00
2019-03-26T14:39:41.789Z,2.40
2019-03-26T14:40:53.970Z,2.40
2019-03-26T14:41:42.132Z,2.80
2019-03-26T14:42:42.303Z,3.40
2019-03-26T14:43:42.477Z,4.00
2019-03-26T14:44:42.649Z,3.50
2019-03-26T14:45:42.821Z,2.70
2019-03-26T14:46:42.991Z,2.30
2019-03-26T14:47:43.162Z,2.70
2019-03-26T14:48:43.335Z,2.70
2019-03-26T14:49:43.510Z,2.70
2019-03-26T14:50:43.676Z,3.10
2019-03-26T14:51:43.846Z,2.90
2019-03-26T14:52:44.020Z,2.60
2019-03-26T14:53:44.188Z,3.30
2019-03-26T14:54:44.361Z,2.60
2019-03-26T14:55:44.532Z,2.80
2019-03-26T14:56:44.699Z,2.70
2019-03-26T14:57:44.868Z,2.60
2019-03-26T14:58:45.039Z,3.80
2019-03-26T14:59:45.209Z,3.30
2019-03-26T15:00:45.383Z,2.40
2019-03-26T15:01:45.552Z,2.10
2019-03-26T15:02:45.724Z,2.10
2019-03-26T15:03:45.895Z,2.40
2019-03-26T15:04:46.063Z,2.70
2019-03-26T15:05:46.237Z,3.40
2019-03-26T15:06:46.404Z,2.90
2019-03-26T15:07:46.576Z,3.00
2019-03-26T15:08:46.746Z,3.20
2019-03-26T15:09:46.918Z,2.90
2019-03-26T15:10:47.086Z,3.60
2019-03-26T15:11:47.259Z,3.20
2019-03-26T15:12:47.430Z,2.80
2019-03-26T15:13:49.507Z,2.80
2019-03-26T15:14:47.775Z,2.30
2019-03-26T15:15:47.943Z,3.20
2019-03-26T15:16:48.113Z,2.10
2019-03-26T15:17:48.287Z,2.20
2019-03-26T15:18:48.457Z,2.10
2019-03-26T15:19:48.626Z,2.40
2019-03-26T15:20:48.797Z,2.30
2019-03-26T15:21:48.967Z,2.30
2019-03-26T15:22:49.136Z,2.00
2019-03-26T15:23:49.308Z,2.40
2019-03-26T15:24:49.478Z,2.10
2019-03-26T15:25:49.649Z,2.10
2019-03-26T15:26:49.821Z,1.90
2019-03-26T15:27:49.992Z,2.10
2019-03-26T15:28:50.163Z,2.00
2019-03-26T15:29:50.336Z,2.10
2019-03-26T15:30:50.507Z,2.00
2019-03-26T15:31:50.679Z,2.20
2019-03-26T15:32:50.850Z,2.30
2019-03-26T15:33:51.022Z,2.60
2019-03-26T15:34:51.197Z,2.00
2019-03-26T15:35:51.369Z,2.40
2019-03-26T15:36:51.542Z,2.80
2019-03-26T15:37:51.713Z,2.40
2019-03-26T15:38:51.888Z,2.70
2019-03-26T15:39:52.067Z,2.00
2019-03-26T15:40:52.228Z,4.00
2019-03-26T15:41:52.416Z,2.50
2019-03-26T15:42:52.568Z,2.70
2019-03-26T15:43:52.744Z,2.00
2019-03-26T15:44:52.912Z,2.20
2019-03-26T15:45:53.083Z,2.10
2019-03-26T15:46:53.252Z,2.00
2019-03-26T15:47:53.422Z,2.00
2019-03-26T15:48:53.594Z,2.00
2019-03-26T15:49:53.765Z,1.90
2019-03-26T15:50:53.936Z,2.10
2019-03-26T15:51:54.107Z,2.30
2019-03-26T15:52:54.280Z,1.80
2019-03-26T15:53:54.452Z,2.40
2019-03-26T15:54:54.620Z,2.00
2019-03-26T15:55:54.793Z,2.10
2019-03-26T15:56:54.963Z,2.10
2019-03-26T15:57:55.134Z,2.40
2019-03-26T15:58:55.305Z,2.10
2019-03-26T15:59:55.472Z,2.00
2019-03-26T16:00:55.647Z,2.30
2019-03-26T16:01:55.815Z,2.30
2019-03-26T16:02:55.987Z,2.10
2019-03-26T16:03:56.156Z,2.30
2019-03-26T16:04:56.325Z,2.30
2019-03-26T16:05:56.497Z,2.10
2019-03-26T16:06:56.667Z,2.40
2019-03-26T16:07:56.838Z,2.60
2019-03-26T16:08:57.022Z,2.40
2019-03-26T16:09:57.189Z,2.00
2019-03-26T16:10:57.358Z,2.80
2019-03-26T16:11:57.529Z,3.20
2019-03-26T16:12:57.701Z,3.60
2019-03-26T16:13:57.872Z,3.40
2019-03-26T16:14:58.041Z,2.60
2019-03-26T16:15:58.211Z,2.40
2019-03-26T16:16:58.383Z,2.30
2019-03-26T16:17:58.554Z,2.30
2019-03-26T16:18:58.724Z,2.40
2019-03-26T16:19:58.896Z,1.90
2019-03-26T16:20:59.069Z,2.40
2019-03-26T16:21:59.238Z,2.50
2019-03-26T16:22:59.408Z,2.40
2019-03-26T16:23:59.579Z,2.20
2019-03-26T16:24:59.751Z,2.30
2019-03-26T16:25:59.921Z,2.10
2019-03-26T16:27:00.091Z,2.20
2019-03-26T16:28:00.264Z,2.80
2019-03-26T16:29:00.431Z,3.00
2019-03-26T16:30:00.603Z,3.00
2019-03-26T16:31:00.771Z,2.80
2019-03-26T16:32:00.943Z,3.00
2019-03-26T16:33:01.118Z,2.60
2019-03-26T16:34:01.282Z,2.40
2019-03-26T16:35:01.457Z,2.90
2019-03-26T16:36:01.622Z,3.80
2019-03-26T16:37:01.792Z,3.60
2019-03-26T16:38:01.964Z,3.30
2019-03-26T16:39:02.149Z,3.40
2019-03-26T16:40:02.298Z,3.80
2019-03-26T16:41:02.468Z,3.90
2019-03-26T16:42:02.636Z,3.20
2019-03-26T16:43:02.805Z,3.40
2019-03-26T16:44:02.977Z,3.50
2019-03-26T16:45:03.147Z,3.00
2019-03-26T16:46:03.318Z,2.90
2019-03-26T16:47:03.489Z,2.60
2019-03-26T16:48:03.663Z,4.40
2019-03-26T16:49:03.828Z,2.80
2019-03-26T16:50:04.000Z,2.80
2019-03-26T16:51:04.179Z,2.60
2019-03-26T16:52:04.341Z,2.90
2019-03-26T16:53:04.509Z,3.00
2019-03-26T16:54:04.685Z,3.00
2019-03-26T16:55:04.849Z,3.00
2019-03-26T16:56:05.021Z,2.80
2019-03-26T16:57:05.190Z,3.10
2019-03-26T16:58:05.363Z,2.90
2019-03-26T16:59:05.532Z,2.60
2019-03-26T17:00:05.703Z,2.80
2019-03-26T17:01:05.874Z,2.80
2019-03-26T17:02:06.041Z,3.10
2019-03-26T17:03:06.214Z,2.90
2019-03-26T17:04:06.385Z,2.90
2019-03-26T17:05:06.558Z,2.80
2019-03-26T17:06:06.728Z,3.20
2019-03-26T17:07:06.897Z,3.40
2019-03-26T17:08:07.071Z,3.10
2019-03-26T17:09:07.240Z,3.00
2019-03-26T17:10:07.411Z,3.30
2019-03-26T17:11:07.581Z,2.70
2019-03-26T17:12:07.754Z,3.00
2019-03-26T17:13:07.925Z,3.50
2019-03-26T17:14:08.094Z,3.00
2019-03-26T17:15:08.268Z,2.70
2019-03-26T17:16:08.437Z,2.80
2019-03-26T17:17:08.607Z,3.00
2019-03-26T17:18:08.780Z,3.10
2019-03-26T17:19:08.952Z,2.80
2019-03-26T17:20:09.120Z,3.20
2019-03-26T17:21:09.293Z,2.90
2019-03-26T17:22:09.463Z,3.10
2019-03-26T17:23:09.634Z,3.30
2019-03-26T17:24:09.862Z,3.20
2019-03-26T17:25:09.971Z,3.30
2019-03-26T17:26:10.141Z,3.10
2019-03-26T17:27:10.338Z,3.20
2019-03-26T17:28:10.483Z,3.40
2019-03-26T17:29:10.652Z,3.00
2019-03-26T17:30:10.823Z,3.40
2019-03-26T17:31:10.994Z,3.30
2019-03-26T17:32:11.165Z,3.50
2019-03-26T17:33:11.337Z,3.40
2019-03-26T17:34:11.503Z,3.80
2019-03-26T17:35:11.673Z,3.10
2019-03-26T17:36:11.839Z,3.70
2019-03-26T17:37:12.008Z,3.60
2019-03-26T17:38:12.180Z,3.60
2019-03-26T17:39:12.351Z,3.40
2019-03-26T17:40:12.520Z,3.50
2019-03-26T17:41:12.728Z,3.40
2019-03-26T17:42:17.531Z,3.30
2019-03-26T17:43:13.026Z,3.60
2019-03-26T17:44:13.196Z,3.50
2019-03-26T17:45:13.368Z,3.80
2019-03-26T17:46:13.541Z,4.00
2019-03-26T17:47:13.709Z,3.40
2019-03-26T17:48:13.878Z,3.70
2019-03-26T17:49:14.084Z,3.60
2019-03-26T17:50:14.236Z,3.40
2019-03-26T17:51:14.404Z,3.10
2019-03-26T17:52:14.595Z,3.70
2019-03-26T17:53:14.776Z,3.40
2019-03-26T17:54:14.946Z,4.70
2019-03-26T17:55:15.126Z,3.60
2019-03-26T17:56:15.286Z,3.50
2019-03-26T17:57:15.458Z,4.00
2019-03-26T17:58:15.623Z,4.10
2019-03-26T17:59:15.800Z,4.00
2019-03-26T18:00:15.967Z,4.20
2019-03-26T18:01:16.136Z,4.80
2019-03-26T18:02:16.304Z,5.70
2019-03-26T18:03:26.345Z,4.90
2019-03-26T18:04:16.648Z,5.10
2019-03-26T18:05:16.818Z,4.00
2019-03-26T18:06:16.987Z,4.90
2019-03-26T18:07:17.162Z,4.60
2019-03-26T18:08:17.330Z,4.80
2019-03-26T18:09:17.503Z,5.00
2019-03-26T18:10:17.679Z,6.50
2019-03-26T18:11:17.844Z,6.80
2019-03-26T18:12:30.380Z,4.90
2019-03-26T18:13:18.233Z,4.60
2019-03-26T18:14:18.361Z,5.20
2019-03-26T18:15:18.527Z,5.00
2019-03-26T18:16:18.696Z,5.50
2019-03-26T18:17:18.874Z,6.20
2019-03-26T18:18:19.040Z,5.30
2019-03-26T18:19:19.211Z,5.50
2019-03-26T18:20:32.017Z,5.80
2019-03-26T18:21:19.604Z,5.10